sensor_id;sensor_type;location;lat;lon;timestamp;temperature;humidity
13686;DHT22;6915;48.296;8.874;2023-05-14T00:00:08;8.70;99.90
13686;DHT22;6915;48.296;8.874;2023-05-14T00:02:37;8.80;99.90
13686;DHT22;6915;48.296;8.874;2023-05-14T00:05:07;8.60;99.90
13686;DHT22;6915;48.296;8.874;2023-05-14T00:07:37;8.80;99.90
13686;DHT22;6915;48.296;8.874;2023-05-14T00:10:07;8.80;99.90
13686;DHT22;6915;48.296;8.874;2023-05-14T00:12:36;8.90;99.90
13686;DHT22;6915;48.296;8.874;2023-05-14T00:15:06;9.00;99.90
13686;DHT22;6915;48.296;8.874;2023-05-14T00:17:35;8.90;99.90
13686;DHT22;6915;48.296;8.874;2023-05-14T00:20:05;8.90;99.90
13686;DHT22;6915;48.296;8.874;2023-05-14T00:22:34;9.00;99.90
13686;DHT22;6915;48.296;8.874;2023-05-14T00:25:03;9.00;99.90
13686;DHT22;6915;48.296;8.874;2023-05-14T00:27:32;8.90;99.90
13686;DHT22;6915;48.296;8.874;2023-05-14T00:30:01;9.10;99.90
13686;DHT22;6915;48.296;8.874;2023-05-14T00:32:30;8.80;99.90
13686;DHT22;6915;48.296;8.874;2023-05-14T00:34:59;8.80;99.90
13686;DHT22;6915;48.296;8.874;2023-05-14T00:37:29;9.00;99.90
13686;DHT22;6915;48.296;8.874;2023-05-14T00:39:57;8.80;99.90
13686;DHT22;6915;48.296;8.874;2023-05-14T00:42:28;8.80;99.90
13686;DHT22;6915;48.296;8.874;2023-05-14T00:44:56;8.90;99.90
13686;DHT22;6915;48.296;8.874;2023-05-14T00:47:25;8.90;99.90
13686;DHT22;6915;48.296;8.874;2023-05-14T00:49:55;8.90;99.90
13686;DHT22;6915;48.296;8.874;2023-05-14T00:52:24;9.00;99.90
13686;DHT22;6915;48.296;8.874;2023-05-14T00:54:53;9.00;99.90
13686;DHT22;6915;48.296;8.874;2023-05-14T01:00:40;9.10;99.90
13686;DHT22;6915;48.296;8.874;2023-05-14T01:03:26;9.00;99.90
13686;DHT22;6915;48.296;8.874;2023-05-14T01:06:00;9.00;99.90
13686;DHT22;6915;48.296;8.874;2023-05-14T01:08:36;9.00;99.90
13686;DHT22;6915;48.296;8.874;2023-05-14T01:11:13;8.90;99.90
13686;DHT22;6915;48.296;8.874;2023-05-14T01:13:50;9.10;99.90
13686;DHT22;6915;48.296;8.874;2023-05-14T01:16:22;9.00;99.90
13686;DHT22;6915;48.296;8.874;2023-05-14T01:18:53;8.90;99.90
13686;DHT22;6915;48.296;8.874;2023-05-14T01:21:35;8.80;99.90
13686;DHT22;6915;48.296;8.874;2023-05-14T01:24:05;8.70;99.90
13686;DHT22;6915;48.296;8.874;2023-05-14T01:26:34;8.60;99.90
13686;DHT22;6915;48.296;8.874;2023-05-14T01:29:07;8.50;99.90
13686;DHT22;6915;48.296;8.874;2023-05-14T01:31:39;8.50;99.90
13686;DHT22;6915;48.296;8.874;2023-05-14T01:34:10;8.40;99.90
13686;DHT22;6915;48.296;8.874;2023-05-14T01:36:41;8.40;99.90
13686;DHT22;6915;48.296;8.874;2023-05-14T01:39:11;8.40;99.90
13686;DHT22;6915;48.296;8.874;2023-05-14T01:41:42;8.40;99.90
13686;DHT22;6915;48.296;8.874;2023-05-14T01:44:12;8.40;99.90
13686;DHT22;6915;48.296;8.874;2023-05-14T01:46:41;8.40;99.90
13686;DHT22;6915;48.296;8.874;2023-05-14T01:49:10;8.30;99.90
13686;DHT22;6915;48.296;8.874;2023-05-14T01:51:38;8.40;99.90
13686;DHT22;6915;48.296;8.874;2023-05-14T01:54:08;8.40;99.90
13686;DHT22;6915;48.296;8.874;2023-05-14T01:56:37;8.40;99.90
13686;DHT22;6915;48.296;8.874;2023-05-14T01:59:07;8.50;99.90
13686;DHT22;6915;48.296;8.874;2023-05-14T02:01:36;8.40;99.90
13686;DHT22;6915;48.296;8.874;2023-05-14T02:04:05;8.30;99.90
13686;DHT22;6915;48.296;8.874;2023-05-14T02:06:34;8.30;99.90
13686;DHT22;6915;48.296;8.874;2023-05-14T02:09:03;8.30;99.90
13686;DHT22;6915;48.296;8.874;2023-05-14T02:11:34;8.20;99.90
13686;DHT22;6915;48.296;8.874;2023-05-14T02:14:02;8.30;99.90
13686;DHT22;6915;48.296;8.874;2023-05-14T02:16:31;8.30;99.90
13686;DHT22;6915;48.296;8.874;2023-05-14T02:19:00;8.20;99.90
13686;DHT22;6915;48.296;8.874;2023-05-14T02:21:28;8.20;99.90
13686;DHT22;6915;48.296;8.874;2023-05-14T02:23:58;8.30;99.90
13686;DHT22;6915;48.296;8.874;2023-05-14T02:26:26;8.20;99.90
13686;DHT22;6915;48.296;8.874;2023-05-14T02:28:57;8.20;99.90
13686;DHT22;6915;48.296;8.874;2023-05-14T02:31:25;8.30;99.90
13686;DHT22;6915;48.296;8.874;2023-05-14T02:33:54;8.40;99.90
13686;DHT22;6915;48.296;8.874;2023-05-14T02:36:22;8.30;99.90
13686;DHT22;6915;48.296;8.874;2023-05-14T02:38:51;8.30;99.90
13686;DHT22;6915;48.296;8.874;2023-05-14T02:41:20;8.30;99.90
13686;DHT22;6915;48.296;8.874;2023-05-14T02:43:51;8.30;99.90
13686;DHT22;6915;48.296;8.874;2023-05-14T02:46:22;8.30;99.90
13686;DHT22;6915;48.296;8.874;2023-05-14T02:48:50;8.30;99.90
13686;DHT22;6915;48.296;8.874;2023-05-14T02:51:20;8.40;99.90
13686;DHT22;6915;48.296;8.874;2023-05-14T02:53:49;8.40;99.90
13686;DHT22;6915;48.296;8.874;2023-05-14T02:56:17;8.40;99.90
13686;DHT22;6915;48.296;8.874;2023-05-14T02:58:47;8.50;99.90
13686;DHT22;6915;48.296;8.874;2023-05-14T03:01:16;8.30;99.90
13686;DHT22;6915;48.296;8.874;2023-05-14T03:03:46;8.40;99.90
13686;DHT22;6915;48.296;8.874;2023-05-14T03:06:15;8.40;99.90
13686;DHT22;6915;48.296;8.874;2023-05-14T03:08:44;8.40;99.90
13686;DHT22;6915;48.296;8.874;2023-05-14T03:11:13;8.40;99.90
13686;DHT22;6915;48.296;8.874;2023-05-14T03:13:41;8.40;99.90
13686;DHT22;6915;48.296;8.874;2023-05-14T03:16:10;8.50;99.90
13686;DHT22;6915;48.296;8.874;2023-05-14T03:18:38;8.40;99.90
13686;DHT22;6915;48.296;8.874;2023-05-14T03:21:09;8.50;99.90
13686;DHT22;6915;48.296;8.874;2023-05-14T03:23:37;8.60;99.90
13686;DHT22;6915;48.296;8.874;2023-05-14T03:26:06;8.60;99.90
13686;DHT22;6915;48.296;8.874;2023-05-14T03:28:35;8.60;99.90
13686;DHT22;6915;48.296;8.874;2023-05-14T03:31:03;8.70;99.90
13686;DHT22;6915;48.296;8.874;2023-05-14T03:33:32;8.70;99.90
13686;DHT22;6915;48.296;8.874;2023-05-14T03:36:00;8.70;99.90
13686;DHT22;6915;48.296;8.874;2023-05-14T03:38:31;8.70;99.90
13686;DHT22;6915;48.296;8.874;2023-05-14T03:40:59;8.80;99.90
13686;DHT22;6915;48.296;8.874;2023-05-14T03:43:28;8.80;99.90
13686;DHT22;6915;48.296;8.874;2023-05-14T03:46:06;8.80;99.90
13686;DHT22;6915;48.296;8.874;2023-05-14T03:48:35;8.80;99.90
13686;DHT22;6915;48.296;8.874;2023-05-14T03:51:04;8.80;99.90
13686;DHT22;6915;48.296;8.874;2023-05-14T03:53:34;8.80;99.90
13686;DHT22;6915;48.296;8.874;2023-05-14T03:56:03;8.80;99.90
13686;DHT22;6915;48.296;8.874;2023-05-14T03:58:32;8.90;99.90
13686;DHT22;6915;48.296;8.874;2023-05-14T04:01:00;8.90;99.90
13686;DHT22;6915;48.296;8.874;2023-05-14T04:03:29;8.90;99.90
13686;DHT22;6915;48.296;8.874;2023-05-14T04:05:57;9.10;99.90
13686;DHT22;6915;48.296;8.874;2023-05-14T04:08:26;8.90;99.90
13686;DHT22;6915;48.296;8.874;2023-05-14T04:10:57;9.20;99.90
13686;DHT22;6915;48.296;8.874;2023-05-14T04:13:25;9.00;99.90
13686;DHT22;6915;48.296;8.874;2023-05-14T04:15:54;9.10;99.90
13686;DHT22;6915;48.296;8.874;2023-05-14T04:18:22;9.20;99.90
13686;DHT22;6915;48.296;8.874;2023-05-14T04:20:51;9.40;99.90
13686;DHT22;6915;48.296;8.874;2023-05-14T04:23:20;9.10;99.90
13686;DHT22;6915;48.296;8.874;2023-05-14T04:25:48;9.10;99.90
13686;DHT22;6915;48.296;8.874;2023-05-14T04:28:18;9.00;99.90
13686;DHT22;6915;48.296;8.874;2023-05-14T04:30:47;9.10;99.90
13686;DHT22;6915;48.296;8.874;2023-05-14T04:33:15;9.10;99.90
13686;DHT22;6915;48.296;8.874;2023-05-14T04:35:45;9.10;99.90
13686;DHT22;6915;48.296;8.874;2023-05-14T04:38:13;9.20;99.90
13686;DHT22;6915;48.296;8.874;2023-05-14T04:40:45;9.30;99.90
13686;DHT22;6915;48.296;8.874;2023-05-14T04:43:15;9.20;99.90
13686;DHT22;6915;48.296;8.874;2023-05-14T04:45:46;9.20;99.90
13686;DHT22;6915;48.296;8.874;2023-05-14T04:48:14;9.10;99.90
13686;DHT22;6915;48.296;8.874;2023-05-14T04:50:43;9.20;99.90
13686;DHT22;6915;48.296;8.874;2023-05-14T04:53:16;9.20;99.90
13686;DHT22;6915;48.296;8.874;2023-05-14T04:55:59;9.20;99.90
13686;DHT22;6915;48.296;8.874;2023-05-14T04:58:35;9.30;99.90
13686;DHT22;6915;48.296;8.874;2023-05-14T05:01:06;9.40;99.90
13686;DHT22;6915;48.296;8.874;2023-05-14T05:03:35;9.40;99.90
13686;DHT22;6915;48.296;8.874;2023-05-14T05:06:05;9.40;99.90
13686;DHT22;6915;48.296;8.874;2023-05-14T05:08:35;9.40;99.90
13686;DHT22;6915;48.296;8.874;2023-05-14T05:11:04;9.50;99.90
13686;DHT22;6915;48.296;8.874;2023-05-14T05:13:33;9.50;99.90
13686;DHT22;6915;48.296;8.874;2023-05-14T05:16:01;9.50;99.90
13686;DHT22;6915;48.296;8.874;2023-05-14T05:18:31;9.60;99.90
13686;DHT22;6915;48.296;8.874;2023-05-14T05:21:00;9.60;99.90
13686;DHT22;6915;48.296;8.874;2023-05-14T05:23:29;9.60;99.90
13686;DHT22;6915;48.296;8.874;2023-05-14T05:25:57;9.60;99.90
13686;DHT22;6915;48.296;8.874;2023-05-14T05:28:26;9.60;99.90
13686;DHT22;6915;48.296;8.874;2023-05-14T05:30:54;9.60;99.90
13686;DHT22;6915;48.296;8.874;2023-05-14T05:33:24;9.70;99.90
13686;DHT22;6915;48.296;8.874;2023-05-14T05:35:54;9.80;99.90
13686;DHT22;6915;48.296;8.874;2023-05-14T05:38:23;9.80;99.90
13686;DHT22;6915;48.296;8.874;2023-05-14T05:40:52;9.80;99.90
13686;DHT22;6915;48.296;8.874;2023-05-14T05:43:20;9.90;99.90
13686;DHT22;6915;48.296;8.874;2023-05-14T05:45:49;10.00;99.90
13686;DHT22;6915;48.296;8.874;2023-05-14T05:48:18;10.00;99.90
13686;DHT22;6915;48.296;8.874;2023-05-14T05:50:48;10.20;99.90
13686;DHT22;6915;48.296;8.874;2023-05-14T05:53:19;10.00;99.90
13686;DHT22;6915;48.296;8.874;2023-05-14T05:55:47;9.90;99.90
13686;DHT22;6915;48.296;8.874;2023-05-14T05:58:19;10.00;99.90
13686;DHT22;6915;48.296;8.874;2023-05-14T06:00:48;10.20;99.90
13686;DHT22;6915;48.296;8.874;2023-05-14T06:03:16;10.10;99.90
13686;DHT22;6915;48.296;8.874;2023-05-14T06:05:45;10.10;99.90
13686;DHT22;6915;48.296;8.874;2023-05-14T06:08:14;10.20;99.90
13686;DHT22;6915;48.296;8.874;2023-05-14T06:10:44;10.30;99.90
13686;DHT22;6915;48.296;8.874;2023-05-14T06:13:13;10.30;99.90
13686;DHT22;6915;48.296;8.874;2023-05-14T06:15:42;10.30;99.90
13686;DHT22;6915;48.296;8.874;2023-05-14T06:18:12;10.30;99.90
13686;DHT22;6915;48.296;8.874;2023-05-14T06:20:40;10.30;99.90
13686;DHT22;6915;48.296;8.874;2023-05-14T06:23:09;10.30;99.90
13686;DHT22;6915;48.296;8.874;2023-05-14T06:25:38;10.30;99.90
13686;DHT22;6915;48.296;8.874;2023-05-14T06:28:08;10.20;99.90
13686;DHT22;6915;48.296;8.874;2023-05-14T06:30:37;10.20;99.90
13686;DHT22;6915;48.296;8.874;2023-05-14T06:33:06;10.10;99.90
13686;DHT22;6915;48.296;8.874;2023-05-14T06:35:34;10.10;99.90
13686;DHT22;6915;48.296;8.874;2023-05-14T06:38:03;10.20;99.90
13686;DHT22;6915;48.296;8.874;2023-05-14T06:40:32;10.20;99.90
13686;DHT22;6915;48.296;8.874;2023-05-14T06:43:03;10.20;99.90
13686;DHT22;6915;48.296;8.874;2023-05-14T06:45:34;10.30;99.90
13686;DHT22;6915;48.296;8.874;2023-05-14T06:48:03;10.30;99.90
13686;DHT22;6915;48.296;8.874;2023-05-14T06:50:32;10.40;99.90
13686;DHT22;6915;48.296;8.874;2023-05-14T06:53:04;10.50;99.90
13686;DHT22;6915;48.296;8.874;2023-05-14T06:55:33;10.50;99.90
13686;DHT22;6915;48.296;8.874;2023-05-14T06:58:02;10.50;99.90
13686;DHT22;6915;48.296;8.874;2023-05-14T07:00:31;10.50;99.90
13686;DHT22;6915;48.296;8.874;2023-05-14T07:03:01;10.60;99.90
13686;DHT22;6915;48.296;8.874;2023-05-14T07:05:30;10.60;99.90
13686;DHT22;6915;48.296;8.874;2023-05-14T07:07:59;10.60;99.90
13686;DHT22;6915;48.296;8.874;2023-05-14T07:10:27;10.50;99.90
13686;DHT22;6915;48.296;8.874;2023-05-14T07:12:57;10.50;99.90
13686;DHT22;6915;48.296;8.874;2023-05-14T07:15:25;10.50;99.90
13686;DHT22;6915;48.296;8.874;2023-05-14T07:17:54;10.50;99.90
13686;DHT22;6915;48.296;8.874;2023-05-14T07:20:25;10.70;99.90
13686;DHT22;6915;48.296;8.874;2023-05-14T07:22:54;10.70;99.90
13686;DHT22;6915;48.296;8.874;2023-05-14T07:25:23;10.70;99.90
13686;DHT22;6915;48.296;8.874;2023-05-14T07:27:51;10.70;99.90
13686;DHT22;6915;48.296;8.874;2023-05-14T07:30:20;10.70;99.90
13686;DHT22;6915;48.296;8.874;2023-05-14T07:32:48;10.80;99.90
13686;DHT22;6915;48.296;8.874;2023-05-14T07:35:17;10.70;99.90
13686;DHT22;6915;48.296;8.874;2023-05-14T07:37:47;10.80;99.90
13686;DHT22;6915;48.296;8.874;2023-05-14T07:40:16;10.80;99.90
13686;DHT22;6915;48.296;8.874;2023-05-14T07:42:45;10.90;99.90
13686;DHT22;6915;48.296;8.874;2023-05-14T07:45:13;10.90;99.90
13686;DHT22;6915;48.296;8.874;2023-05-14T07:47:42;10.90;99.90
13686;DHT22;6915;48.296;8.874;2023-05-14T07:50:13;11.00;99.90
13686;DHT22;6915;48.296;8.874;2023-05-14T07:52:42;10.90;99.90
13686;DHT22;6915;48.296;8.874;2023-05-14T07:55:13;11.00;99.90
13686;DHT22;6915;48.296;8.874;2023-05-14T07:57:41;11.00;99.90
13686;DHT22;6915;48.296;8.874;2023-05-14T08:00:11;11.00;99.90
13686;DHT22;6915;48.296;8.874;2023-05-14T08:02:40;11.00;99.90
13686;DHT22;6915;48.296;8.874;2023-05-14T08:05:10;11.10;99.90
13686;DHT22;6915;48.296;8.874;2023-05-14T08:07:39;11.10;99.90
13686;DHT22;6915;48.296;8.874;2023-05-14T08:10:06;11.20;99.90
13686;DHT22;6915;48.296;8.874;2023-05-14T08:12:37;11.10;99.90
13686;DHT22;6915;48.296;8.874;2023-05-14T08:15:07;11.10;99.90
13686;DHT22;6915;48.296;8.874;2023-05-14T08:17:36;11.10;99.90
13686;DHT22;6915;48.296;8.874;2023-05-14T08:20:07;11.10;99.90
13686;DHT22;6915;48.296;8.874;2023-05-14T08:22:36;11.10;99.90
13686;DHT22;6915;48.296;8.874;2023-05-14T08:25:06;11.20;99.90
13686;DHT22;6915;48.296;8.874;2023-05-14T08:27:36;11.10;99.90
13686;DHT22;6915;48.296;8.874;2023-05-14T08:30:04;11.10;99.90
13686;DHT22;6915;48.296;8.874;2023-05-14T08:32:33;11.10;99.90
13686;DHT22;6915;48.296;8.874;2023-05-14T08:35:04;11.00;99.90
13686;DHT22;6915;48.296;8.874;2023-05-14T08:37:33;11.10;99.90
13686;DHT22;6915;48.296;8.874;2023-05-14T08:40:02;11.10;99.90
13686;DHT22;6915;48.296;8.874;2023-05-14T08:42:31;11.10;99.90
13686;DHT22;6915;48.296;8.874;2023-05-14T08:45:03;11.20;99.90
13686;DHT22;6915;48.296;8.874;2023-05-14T08:47:33;11.20;99.90
13686;DHT22;6915;48.296;8.874;2023-05-14T08:50:03;11.40;99.90
13686;DHT22;6915;48.296;8.874;2023-05-14T08:52:34;11.40;99.90
13686;DHT22;6915;48.296;8.874;2023-05-14T08:55:04;11.40;99.90
13686;DHT22;6915;48.296;8.874;2023-05-14T08:57:34;11.30;99.90
13686;DHT22;6915;48.296;8.874;2023-05-14T09:00:06;11.20;99.90
13686;DHT22;6915;48.296;8.874;2023-05-14T09:02:38;11.30;99.90
13686;DHT22;6915;48.296;8.874;2023-05-14T09:05:08;11.30;99.90
13686;DHT22;6915;48.296;8.874;2023-05-14T09:07:37;11.30;99.90
13686;DHT22;6915;48.296;8.874;2023-05-14T09:10:08;11.40;99.90
13686;DHT22;6915;48.296;8.874;2023-05-14T09:12:37;11.40;99.90
13686;DHT22;6915;48.296;8.874;2023-05-14T09:15:08;11.30;99.90
13686;DHT22;6915;48.296;8.874;2023-05-14T09:17:37;11.30;99.90
13686;DHT22;6915;48.296;8.874;2023-05-14T09:20:08;11.30;99.90
13686;DHT22;6915;48.296;8.874;2023-05-14T09:22:39;11.40;99.90
13686;DHT22;6915;48.296;8.874;2023-05-14T09:25:08;11.70;99.90
13686;DHT22;6915;48.296;8.874;2023-05-14T09:27:38;11.70;99.90
13686;DHT22;6915;48.296;8.874;2023-05-14T09:30:10;11.60;99.90
13686;DHT22;6915;48.296;8.874;2023-05-14T09:32:41;11.70;99.90
13686;DHT22;6915;48.296;8.874;2023-05-14T09:35:15;11.80;99.90
13686;DHT22;6915;48.296;8.874;2023-05-14T09:37:47;12.00;99.90
13686;DHT22;6915;48.296;8.874;2023-05-14T09:40:16;12.10;99.90
13686;DHT22;6915;48.296;8.874;2023-05-14T09:42:45;12.20;99.90
13686;DHT22;6915;48.296;8.874;2023-05-14T09:45:16;12.30;99.90
13686;DHT22;6915;48.296;8.874;2023-05-14T09:47:44;12.60;99.90
13686;DHT22;6915;48.296;8.874;2023-05-14T09:50:13;12.80;99.90
13686;DHT22;6915;48.296;8.874;2023-05-14T09:52:42;13.00;99.90
13686;DHT22;6915;48.296;8.874;2023-05-14T09:55:11;13.10;99.90
13686;DHT22;6915;48.296;8.874;2023-05-14T09:57:40;13.40;99.90
13686;DHT22;6915;48.296;8.874;2023-05-14T10:00:10;13.50;99.90
13686;DHT22;6915;48.296;8.874;2023-05-14T10:02:41;13.70;99.90
13686;DHT22;6915;48.296;8.874;2023-05-14T10:05:12;13.90;99.90
13686;DHT22;6915;48.296;8.874;2023-05-14T10:07:45;13.90;99.90
13686;DHT22;6915;48.296;8.874;2023-05-14T10:10:17;14.00;99.90
13686;DHT22;6915;48.296;8.874;2023-05-14T10:12:50;14.20;99.90
13686;DHT22;6915;48.296;8.874;2023-05-14T10:15:26;14.10;99.90
13686;DHT22;6915;48.296;8.874;2023-05-14T10:18:02;14.30;99.90
13686;DHT22;6915;48.296;8.874;2023-05-14T10:20:32;14.40;99.90
13686;DHT22;6915;48.296;8.874;2023-05-14T10:23:01;14.00;99.90
13686;DHT22;6915;48.296;8.874;2023-05-14T10:25:30;14.10;99.90
13686;DHT22;6915;48.296;8.874;2023-05-14T10:27:59;14.10;99.90
13686;DHT22;6915;48.296;8.874;2023-05-14T10:30:28;14.10;99.90
13686;DHT22;6915;48.296;8.874;2023-05-14T10:33:08;14.00;99.90
13686;DHT22;6915;48.296;8.874;2023-05-14T10:36:02;13.80;99.90
13686;DHT22;6915;48.296;8.874;2023-05-14T10:38:34;13.80;99.90
13686;DHT22;6915;48.296;8.874;2023-05-14T10:41:04;13.70;99.90
13686;DHT22;6915;48.296;8.874;2023-05-14T10:43:38;13.80;99.90
13686;DHT22;6915;48.296;8.874;2023-05-14T10:46:08;14.00;99.90
13686;DHT22;6915;48.296;8.874;2023-05-14T10:48:41;14.20;99.90
13686;DHT22;6915;48.296;8.874;2023-05-14T10:51:11;14.30;99.90
13686;DHT22;6915;48.296;8.874;2023-05-14T10:53:41;14.40;99.90
13686;DHT22;6915;48.296;8.874;2023-05-14T10:56:12;14.60;99.90
13686;DHT22;6915;48.296;8.874;2023-05-14T10:58:43;14.50;99.90
13686;DHT22;6915;48.296;8.874;2023-05-14T11:01:13;14.60;99.90
13686;DHT22;6915;48.296;8.874;2023-05-14T11:03:44;14.30;99.90
13686;DHT22;6915;48.296;8.874;2023-05-14T11:06:14;14.20;99.90
13686;DHT22;6915;48.296;8.874;2023-05-14T11:08:43;14.30;99.90
13686;DHT22;6915;48.296;8.874;2023-05-14T11:11:13;14.70;99.90
13686;DHT22;6915;48.296;8.874;2023-05-14T11:13:42;15.00;99.90
13686;DHT22;6915;48.296;8.874;2023-05-14T11:16:11;14.70;99.90
13686;DHT22;6915;48.296;8.874;2023-05-14T11:18:46;14.50;99.90
13686;DHT22;6915;48.296;8.874;2023-05-14T11:21:14;14.20;99.90
13686;DHT22;6915;48.296;8.874;2023-05-14T11:23:47;14.50;99.90
13686;DHT22;6915;48.296;8.874;2023-05-14T11:26:15;14.80;99.90
13686;DHT22;6915;48.296;8.874;2023-05-14T11:28:45;15.10;99.90
13686;DHT22;6915;48.296;8.874;2023-05-14T11:31:13;15.40;99.90
13686;DHT22;6915;48.296;8.874;2023-05-14T11:33:43;15.80;99.90
13686;DHT22;6915;48.296;8.874;2023-05-14T11:36:13;16.00;99.90
13686;DHT22;6915;48.296;8.874;2023-05-14T11:38:47;16.00;99.90
13686;DHT22;6915;48.296;8.874;2023-05-14T11:41:17;16.00;99.90
13686;DHT22;6915;48.296;8.874;2023-05-14T11:43:48;16.00;99.90
13686;DHT22;6915;48.296;8.874;2023-05-14T11:46:17;16.10;99.90
13686;DHT22;6915;48.296;8.874;2023-05-14T11:48:46;16.10;99.90
13686;DHT22;6915;48.296;8.874;2023-05-14T11:51:16;16.20;99.90
13686;DHT22;6915;48.296;8.874;2023-05-14T11:53:46;16.10;99.90
13686;DHT22;6915;48.296;8.874;2023-05-14T11:56:14;16.40;99.90
13686;DHT22;6915;48.296;8.874;2023-05-14T11:58:48;16.90;99.90
13686;DHT22;6915;48.296;8.874;2023-05-14T12:01:17;17.30;99.90
13686;DHT22;6915;48.296;8.874;2023-05-14T12:03:46;16.90;99.90
13686;DHT22;6915;48.296;8.874;2023-05-14T12:06:14;16.70;99.90
13686;DHT22;6915;48.296;8.874;2023-05-14T12:08:59;16.40;99.90
13686;DHT22;6915;48.296;8.874;2023-05-14T12:11:31;16.50;99.90
13686;DHT22;6915;48.296;8.874;2023-05-14T12:14:00;16.40;99.90
13686;DHT22;6915;48.296;8.874;2023-05-14T12:16:30;16.30;99.90
13686;DHT22;6915;48.296;8.874;2023-05-14T12:19:00;16.40;99.90
13686;DHT22;6915;48.296;8.874;2023-05-14T12:21:44;16.90;99.90
13686;DHT22;6915;48.296;8.874;2023-05-14T12:46:12;16.30;99.90
13686;DHT22;6915;48.296;8.874;2023-05-14T12:48:42;16.10;99.90
13686;DHT22;6915;48.296;8.874;2023-05-14T12:51:13;15.90;99.90
13686;DHT22;6915;48.296;8.874;2023-05-14T12:53:44;15.90;99.90
13686;DHT22;6915;48.296;8.874;2023-05-14T12:56:15;16.00;99.90
13686;DHT22;6915;48.296;8.874;2023-05-14T12:58:43;15.90;99.90
13686;DHT22;6915;48.296;8.874;2023-05-14T13:01:14;15.80;99.90
13686;DHT22;6915;48.296;8.874;2023-05-14T13:03:43;15.80;99.90
13686;DHT22;6915;48.296;8.874;2023-05-14T13:06:12;15.90;99.90
13686;DHT22;6915;48.296;8.874;2023-05-14T13:47:32;17.50;99.90
13686;DHT22;6915;48.296;8.874;2023-05-14T13:50:01;17.70;99.90
13686;DHT22;6915;48.296;8.874;2023-05-14T13:52:30;17.70;99.90
13686;DHT22;6915;48.296;8.874;2023-05-14T13:54:58;17.80;99.90
13686;DHT22;6915;48.296;8.874;2023-05-14T13:57:27;18.20;99.90
13686;DHT22;6915;48.296;8.874;2023-05-14T13:59:56;18.30;99.90
13686;DHT22;6915;48.296;8.874;2023-05-14T14:02:24;17.70;99.90
13686;DHT22;6915;48.296;8.874;2023-05-14T14:04:55;16.40;99.90
13686;DHT22;6915;48.296;8.874;2023-05-14T14:20:43;12.60;99.90
13686;DHT22;6915;48.296;8.874;2023-05-14T14:23:12;12.40;99.90
13686;DHT22;6915;48.296;8.874;2023-05-14T14:26:11;12.40;99.90
13686;DHT22;6915;48.296;8.874;2023-05-14T14:28:57;12.40;99.90
13686;DHT22;6915;48.296;8.874;2023-05-14T14:31:28;12.40;99.90
13686;DHT22;6915;48.296;8.874;2023-05-14T15:31:21;14.80;99.90
13686;DHT22;6915;48.296;8.874;2023-05-14T15:33:50;14.80;99.90
13686;DHT22;6915;48.296;8.874;2023-05-14T15:36:19;14.50;99.90
13686;DHT22;6915;48.296;8.874;2023-05-14T15:38:49;14.80;99.90
13686;DHT22;6915;48.296;8.874;2023-05-14T15:41:17;14.80;99.90
13686;DHT22;6915;48.296;8.874;2023-05-14T15:43:46;14.40;99.90
13686;DHT22;6915;48.296;8.874;2023-05-14T15:46:15;14.30;99.90
13686;DHT22;6915;48.296;8.874;2023-05-14T15:48:45;14.30;99.90
13686;DHT22;6915;48.296;8.874;2023-05-14T15:51:14;14.10;99.90
13686;DHT22;6915;48.296;8.874;2023-05-14T15:53:43;13.80;99.90
13686;DHT22;6915;48.296;8.874;2023-05-14T15:56:12;13.80;99.90
13686;DHT22;6915;48.296;8.874;2023-05-14T15:58:41;13.60;99.90
13686;DHT22;6915;48.296;8.874;2023-05-14T16:01:14;13.60;99.90
13686;DHT22;6915;48.296;8.874;2023-05-14T16:24:28;14.00;99.90
13686;DHT22;6915;48.296;8.874;2023-05-14T16:26:56;14.20;99.90
13686;DHT22;6915;48.296;8.874;2023-05-14T16:29:26;14.10;99.90
13686;DHT22;6915;48.296;8.874;2023-05-14T16:31:54;14.00;99.90
13686;DHT22;6915;48.296;8.874;2023-05-14T16:34:26;13.90;99.90
13686;DHT22;6915;48.296;8.874;2023-05-14T16:52:28;13.40;99.90
13686;DHT22;6915;48.296;8.874;2023-05-14T16:54:57;13.50;99.90
13686;DHT22;6915;48.296;8.874;2023-05-14T16:57:25;13.60;99.90
13686;DHT22;6915;48.296;8.874;2023-05-14T16:59:54;13.70;99.90
13686;DHT22;6915;48.296;8.874;2023-05-14T17:02:23;13.80;99.90
13686;DHT22;6915;48.296;8.874;2023-05-14T17:04:52;13.90;99.90
13686;DHT22;6915;48.296;8.874;2023-05-14T17:07:21;13.90;99.90
13686;DHT22;6915;48.296;8.874;2023-05-14T17:09:51;14.10;99.90
13686;DHT22;6915;48.296;8.874;2023-05-14T17:12:20;14.20;99.90
13686;DHT22;6915;48.296;8.874;2023-05-14T17:14:49;14.20;99.90
13686;DHT22;6915;48.296;8.874;2023-05-14T17:17:18;14.10;99.90
13686;DHT22;6915;48.296;8.874;2023-05-14T17:19:47;13.90;99.90
13686;DHT22;6915;48.296;8.874;2023-05-14T17:22:15;13.90;99.90
13686;DHT22;6915;48.296;8.874;2023-05-14T17:24:44;13.90;99.90
13686;DHT22;6915;48.296;8.874;2023-05-14T17:27:14;13.70;99.90
13686;DHT22;6915;48.296;8.874;2023-05-14T17:29:43;13.60;99.90
13686;DHT22;6915;48.296;8.874;2023-05-14T17:32:11;13.40;99.90
13686;DHT22;6915;48.296;8.874;2023-05-14T17:34:40;13.40;99.90
13686;DHT22;6915;48.296;8.874;2023-05-14T17:37:09;13.40;99.90
13686;DHT22;6915;48.296;8.874;2023-05-14T17:39:37;13.40;99.90
13686;DHT22;6915;48.296;8.874;2023-05-14T17:42:10;13.30;99.90
13686;DHT22;6915;48.296;8.874;2023-05-14T17:44:40;13.30;99.90
13686;DHT22;6915;48.296;8.874;2023-05-14T20:43:15;9.70;99.90
13686;DHT22;6915;48.296;8.874;2023-05-14T20:45:44;9.60;99.90
13686;DHT22;6915;48.296;8.874;2023-05-14T20:48:12;9.60;99.90
13686;DHT22;6915;48.296;8.874;2023-05-14T20:50:44;9.60;99.90
13686;DHT22;6915;48.296;8.874;2023-05-14T20:53:12;9.60;99.90
13686;DHT22;6915;48.296;8.874;2023-05-14T20:55:41;9.50;99.90
13686;DHT22;6915;48.296;8.874;2023-05-14T20:58:11;9.40;99.90
13686;DHT22;6915;48.296;8.874;2023-05-14T21:00:41;9.30;99.90
13686;DHT22;6915;48.296;8.874;2023-05-14T21:03:09;9.20;99.90
13686;DHT22;6915;48.296;8.874;2023-05-14T21:05:38;9.20;99.90
13686;DHT22;6915;48.296;8.874;2023-05-14T21:08:08;9.20;99.90
13686;DHT22;6915;48.296;8.874;2023-05-14T21:10:37;9.10;99.90
13686;DHT22;6915;48.296;8.874;2023-05-14T21:13:05;9.30;99.90
13686;DHT22;6915;48.296;8.874;2023-05-14T21:15:35;9.10;99.90
13686;DHT22;6915;48.296;8.874;2023-05-14T21:18:05;9.10;99.90
13686;DHT22;6915;48.296;8.874;2023-05-14T21:20:34;9.10;99.90
13686;DHT22;6915;48.296;8.874;2023-05-14T21:23:02;9.00;99.90
13686;DHT22;6915;48.296;8.874;2023-05-14T21:25:31;9.00;99.90
13686;DHT22;6915;48.296;8.874;2023-05-14T21:28:00;8.90;99.90
13686;DHT22;6915;48.296;8.874;2023-05-14T21:30:28;8.90;99.90
13686;DHT22;6915;48.296;8.874;2023-05-14T21:32:57;9.00;99.90
13686;DHT22;6915;48.296;8.874;2023-05-14T21:35:27;9.00;99.90
13686;DHT22;6915;48.296;8.874;2023-05-14T21:37:55;9.10;99.90
13686;DHT22;6915;48.296;8.874;2023-05-14T21:40:24;9.10;99.90
13686;DHT22;6915;48.296;8.874;2023-05-14T21:42:53;9.00;99.90
13686;DHT22;6915;48.296;8.874;2023-05-14T21:45:21;9.00;99.90
13686;DHT22;6915;48.296;8.874;2023-05-14T21:47:50;8.90;99.90
13686;DHT22;6915;48.296;8.874;2023-05-14T21:50:19;9.00;99.90
13686;DHT22;6915;48.296;8.874;2023-05-14T21:52:49;9.00;99.90
13686;DHT22;6915;48.296;8.874;2023-05-14T21:55:18;9.00;99.90